createdAt,value
2019-05-09T00:00:43.918Z,13.50
2019-05-09T00:03:13.792Z,13.50
2019-05-09T00:05:44.110Z,13.50
2019-05-09T00:08:13.912Z,13.50
2019-05-09T00:10:44.868Z,13.50
2019-05-09T00:13:13.966Z,13.50
2019-05-09T00:15:43.662Z,13.50
2019-05-09T00:18:14.190Z,13.40
2019-05-09T00:21:05.442Z,13.50
2019-05-09T00:23:34.297Z,13.50
2019-05-09T00:26:04.211Z,13.50
2019-05-09T00:28:36.093Z,13.40
2019-05-09T00:31:14.165Z,13.40
2019-05-09T00:33:48.113Z,13.40
2019-05-09T00:36:17.567Z,13.40
2019-05-09T00:38:46.405Z,13.40
2019-05-09T00:41:15.390Z,13.40
2019-05-09T00:43:49.878Z,13.40
2019-05-09T00:46:24.710Z,13.40
2019-05-09T00:49:05.070Z,13.40
2019-05-09T00:51:33.995Z,13.40
2019-05-09T00:54:04.137Z,13.40
2019-05-09T00:56:33.388Z,13.40
2019-05-09T00:59:04.192Z,13.30
2019-05-09T01:01:34.214Z,13.30
2019-05-09T01:04:04.353Z,13.30
2019-05-09T01:06:34.144Z,13.30
2019-05-09T01:09:04.189Z,13.30
2019-05-09T01:11:33.493Z,13.30
2019-05-09T01:14:03.610Z,13.30
2019-05-09T01:16:33.609Z,13.30
2019-05-09T01:19:03.698Z,13.30
2019-05-09T01:21:33.462Z,13.30
2019-05-09T01:24:03.555Z,13.30
2019-05-09T01:26:33.577Z,13.30
2019-05-09T01:29:04.346Z,13.30
2019-05-09T01:31:33.436Z,13.20
2019-05-09T01:34:23.967Z,13.20
2019-05-09T01:37:10.553Z,13.20
2019-05-09T01:39:39.670Z,13.20
2019-05-09T01:42:08.671Z,13.20
2019-05-09T01:44:37.678Z,13.20
2019-05-09T01:47:07.944Z,13.10
2019-05-09T01:49:36.787Z,13.10
2019-05-09T01:52:05.802Z,13.10
2019-05-09T01:54:36.743Z,13.10
2019-05-09T01:57:05.786Z,13.10
2019-05-09T01:59:34.730Z,13.10
2019-05-09T02:02:08.786Z,13.10
2019-05-09T02:04:34.982Z,13.10
2019-05-09T02:07:04.416Z,13.00
2019-05-09T02:09:34.371Z,13.00
2019-05-09T02:12:04.123Z,13.00
2019-05-09T02:14:43.854Z,13.10
2019-05-09T02:17:33.514Z,13.00
2019-05-09T02:20:03.974Z,13.00
2019-05-09T02:22:36.293Z,13.10
2019-05-09T02:25:07.062Z,13.00
2019-05-09T02:27:36.074Z,13.00
2019-05-09T02:30:06.187Z,13.00
2019-05-09T02:32:35.755Z,13.00
2019-05-09T02:35:05.720Z,13.00
2019-05-09T02:37:34.651Z,13.00
2019-05-09T02:40:04.044Z,12.90
2019-05-09T02:42:33.306Z,12.90
2019-05-09T02:45:02.233Z,12.90
2019-05-09T02:47:31.143Z,12.90
2019-05-09T02:50:00.028Z,12.90
2019-05-09T02:52:28.973Z,12.90
2019-05-09T02:54:58.548Z,12.90
2019-05-09T02:57:29.435Z,12.90
2019-05-09T03:00:05.007Z,12.80
2019-05-09T03:02:53.253Z,12.80
2019-05-09T03:05:22.253Z,12.80
2019-05-09T03:07:51.221Z,12.80
2019-05-09T03:10:22.739Z,12.80
2019-05-09T03:12:51.860Z,12.80
2019-05-09T03:15:21.094Z,12.90
2019-05-09T03:17:50.203Z,12.80
2019-05-09T03:20:42.787Z,12.80
2019-05-09T03:23:11.642Z,12.80
2019-05-09T03:25:41.180Z,12.80
2019-05-09T03:28:18.440Z,12.90
2019-05-09T03:30:50.081Z,12.80
2019-05-09T03:33:20.286Z,12.80
2019-05-09T03:35:49.712Z,12.80
2019-05-09T03:38:18.574Z,12.80
2019-05-09T03:40:47.813Z,12.70
2019-05-09T03:43:18.390Z,12.80
2019-05-09T03:45:53.729Z,12.70
2019-05-09T03:48:28.759Z,12.70
2019-05-09T03:50:57.801Z,12.70
2019-05-09T03:53:27.572Z,12.70
2019-05-09T03:55:58.385Z,12.60
2019-05-09T03:58:28.130Z,12.70
2019-05-09T04:00:58.034Z,12.70
2019-05-09T04:03:27.790Z,12.70
2019-05-09T04:06:02.554Z,12.70
2019-05-09T04:08:28.261Z,12.70
2019-05-09T04:10:58.692Z,12.70
2019-05-09T04:13:33.104Z,12.70
2019-05-09T04:16:02.057Z,12.70
2019-05-09T04:18:30.907Z,12.70
2019-05-09T04:20:59.826Z,12.70
2019-05-09T04:23:29.973Z,12.70
2019-05-09T04:26:04.634Z,12.70
2019-05-09T04:28:33.508Z,12.70
2019-05-09T04:31:02.571Z,12.70
2019-05-09T04:33:31.438Z,12.70
2019-05-09T04:36:00.382Z,12.70
2019-05-09T04:38:29.223Z,12.70
2019-05-09T04:40:58.523Z,12.70
2019-05-09T04:43:35.489Z,12.70
2019-05-09T04:46:00.322Z,12.80
2019-05-09T04:48:32.774Z,12.70
2019-05-09T04:51:02.757Z,12.80
2019-05-09T04:53:32.207Z,12.80
2019-05-09T04:56:21.093Z,12.80
2019-05-09T04:58:50.114Z,12.80
2019-05-09T05:01:43.981Z,12.90
2019-05-09T05:04:13.011Z,12.90
2019-05-09T05:06:43.656Z,12.90
2019-05-09T05:09:12.659Z,12.90
2019-05-09T05:11:41.614Z,13.00
2019-05-09T05:14:21.207Z,13.00
2019-05-09T05:16:53.890Z,13.00
2019-05-09T05:19:23.782Z,13.00
2019-05-09T05:21:52.705Z,13.00
2019-05-09T05:24:40.684Z,13.10
2019-05-09T05:27:09.579Z,13.10
2019-05-09T05:29:38.516Z,13.10
2019-05-09T05:32:11.614Z,13.10
2019-05-09T05:34:58.838Z,13.10
2019-05-09T05:37:28.144Z,13.10
2019-05-09T05:39:58.325Z,13.20
2019-05-09T05:42:28.290Z,13.20
2019-05-09T05:44:58.300Z,13.20
2019-05-09T05:47:39.677Z,13.30
2019-05-09T05:50:08.923Z,13.40
2019-05-09T05:52:37.788Z,13.50
2019-05-09T05:55:07.696Z,13.60
2019-05-09T05:57:38.527Z,13.80
2019-05-09T06:00:08.914Z,14.00
2019-05-09T06:02:38.551Z,14.30
2019-05-09T06:05:08.450Z,14.70
2019-05-09T06:07:37.886Z,15.00
2019-05-09T06:10:08.390Z,15.30
2019-05-09T06:12:38.125Z,15.60
2019-05-09T06:15:08.367Z,15.80
2019-05-09T06:17:38.069Z,16.00
2019-05-09T06:20:08.937Z,16.20
2019-05-09T06:22:38.322Z,16.40
2019-05-09T06:25:09.540Z,16.60
2019-05-09T06:27:38.269Z,16.80
2019-05-09T06:30:08.676Z,17.10
2019-05-09T06:32:38.477Z,17.50
2019-05-09T06:35:08.385Z,17.80
2019-05-09T06:37:38.367Z,18.00
2019-05-09T06:40:08.132Z,18.30
2019-05-09T06:42:38.116Z,18.50
2019-05-09T06:45:33.373Z,18.70
2019-05-09T06:48:02.414Z,18.90
2019-05-09T06:50:31.290Z,19.10
2019-05-09T06:53:00.184Z,19.30
2019-05-09T06:55:29.806Z,19.50
2019-05-09T06:57:58.886Z,19.70
2019-05-09T07:00:38.973Z,19.80
2019-05-09T07:03:15.379Z,19.90
2019-05-09T07:06:01.502Z,20.20
2019-05-09T07:08:38.245Z,20.20
2019-05-09T07:11:07.634Z,20.40
2019-05-09T07:13:38.210Z,20.60
2019-05-09T07:16:08.863Z,20.70
2019-05-09T07:18:38.328Z,20.80
2019-05-09T07:21:08.375Z,20.80
2019-05-09T07:23:37.550Z,20.90
2019-05-09T07:26:10.370Z,20.80
2019-05-09T07:28:39.726Z,20.50
2019-05-09T07:31:37.888Z,20.60
2019-05-09T07:34:11.773Z,20.60
2019-05-09T07:36:40.679Z,20.70
2019-05-09T07:39:09.763Z,20.60
2019-05-09T07:41:38.821Z,20.40
2019-05-09T07:44:07.853Z,20.40
2019-05-09T07:46:57.919Z,20.70
2019-05-09T07:49:28.360Z,20.90
2019-05-09T07:51:59.073Z,21.10
2019-05-09T07:54:29.302Z,21.20
2019-05-09T07:57:18.312Z,21.10
2019-05-09T07:59:47.860Z,21.00
2019-05-09T08:02:17.688Z,21.00
2019-05-09T08:04:48.843Z,21.10
2019-05-09T08:07:17.692Z,21.20
2019-05-09T08:09:47.573Z,21.30
2019-05-09T08:12:17.934Z,21.30
2019-05-09T08:15:06.669Z,21.30
2019-05-09T08:17:18.220Z,21.30
2019-05-09T08:19:48.482Z,21.50
2019-05-09T08:22:24.871Z,21.60
2019-05-09T08:24:48.450Z,21.60
2019-05-09T08:27:17.651Z,21.80
2019-05-09T08:29:47.872Z,21.90
2019-05-09T08:32:18.065Z,22.00
2019-05-09T08:34:48.212Z,22.30
2019-05-09T08:37:17.637Z,22.40
2019-05-09T08:39:48.407Z,22.40
2019-05-09T08:42:18.002Z,22.20
2019-05-09T08:44:48.250Z,22.20
2019-05-09T08:47:18.481Z,22.30
2019-05-09T08:49:58.738Z,22.30
2019-05-09T08:52:28.749Z,22.50
2019-05-09T08:54:58.474Z,22.70
2019-05-09T08:57:28.888Z,22.90
2019-05-09T08:59:58.956Z,22.70
2019-05-09T09:02:28.460Z,22.10
2019-05-09T09:04:58.366Z,21.80
2019-05-09T09:07:29.729Z,21.80
2019-05-09T09:09:58.169Z,21.80
2019-05-09T09:12:34.099Z,21.50
2019-05-09T09:14:58.627Z,21.20
2019-05-09T09:17:28.086Z,21.30
2019-05-09T09:19:58.256Z,21.40
2019-05-09T09:22:28.337Z,21.60
2019-05-09T09:24:58.637Z,21.70
2019-05-09T09:27:28.274Z,21.90
2019-05-09T09:29:58.762Z,22.10
2019-05-09T09:32:28.131Z,22.10
2019-05-09T09:34:58.746Z,22.10
2019-05-09T09:37:37.676Z,22.20
2019-05-09T09:39:58.587Z,22.30
2019-05-09T09:42:28.280Z,21.90
2019-05-09T09:44:58.526Z,21.50
2019-05-09T09:47:28.636Z,21.30
2019-05-09T09:49:59.510Z,21.40
2019-05-09T09:52:34.024Z,21.70
2019-05-09T09:54:59.102Z,22.00
2019-05-09T09:57:28.833Z,22.30
2019-05-09T10:00:18.078Z,22.60
2019-05-09T10:02:48.248Z,22.60
2019-05-09T10:05:18.337Z,22.40
2019-05-09T10:07:47.731Z,21.90
2019-05-09T10:10:32.616Z,21.70
2019-05-09T10:13:03.992Z,21.50
2019-05-09T10:15:38.408Z,21.60
2019-05-09T10:18:19.646Z,22.70
2019-05-09T10:20:53.587Z,23.60
2019-05-09T10:23:25.272Z,24.10
2019-05-09T10:25:54.236Z,23.10
2019-05-09T10:28:23.236Z,22.20
2019-05-09T10:30:52.165Z,22.10
2019-05-09T10:33:21.095Z,22.00
2019-05-09T10:35:50.012Z,21.40
2019-05-09T10:38:19.166Z,21.00
2019-05-09T10:40:48.712Z,20.80
2019-05-09T10:43:38.485Z,20.80
2019-05-09T10:46:13.283Z,20.70
2019-05-09T10:48:42.881Z,20.80
2019-05-09T10:51:11.758Z,20.70
2019-05-09T10:53:40.673Z,20.70
2019-05-09T10:56:09.603Z,20.70
2019-05-09T10:58:38.567Z,20.60
2019-05-09T11:01:09.150Z,20.50
2019-05-09T11:03:38.400Z,20.50
2019-05-09T11:06:08.632Z,20.40
2019-05-09T11:08:38.255Z,20.40
2019-05-09T11:11:09.509Z,20.30
2019-05-09T11:13:38.956Z,20.20
2019-05-09T11:16:08.462Z,20.20
2019-05-09T11:18:37.323Z,20.30
2019-05-09T11:21:08.397Z,20.20
2019-05-09T11:23:39.148Z,20.20
2019-05-09T11:26:07.641Z,20.10
2019-05-09T11:28:36.475Z,20.00
2019-05-09T11:31:07.880Z,19.90
2019-05-09T11:33:38.612Z,19.80
2019-05-09T11:36:09.715Z,19.80
2019-05-09T11:38:43.444Z,19.80
2019-05-09T11:41:08.354Z,19.70
2019-05-09T11:43:38.940Z,19.60
2019-05-09T11:46:10.502Z,19.50
2019-05-09T11:48:41.448Z,19.60
2019-05-09T11:51:10.489Z,19.60
2019-05-09T11:53:40.166Z,19.60
2019-05-09T11:56:09.618Z,19.60
2019-05-09T11:58:38.536Z,19.70
2019-05-09T12:01:08.242Z,19.70
2019-05-09T12:03:38.925Z,19.70
2019-05-09T12:06:08.197Z,19.80
2019-05-09T12:08:38.774Z,19.80
2019-05-09T12:11:08.535Z,19.80
2019-05-09T12:13:38.076Z,19.90
2019-05-09T12:16:07.488Z,19.90
2019-05-09T12:18:37.811Z,19.90
2019-05-09T12:21:08.508Z,19.90
2019-05-09T12:23:37.849Z,19.80
2019-05-09T12:26:08.163Z,19.80
2019-05-09T12:28:38.687Z,19.80
2019-05-09T12:31:08.006Z,19.70
2019-05-09T12:33:37.114Z,19.60
2019-05-09T12:36:09.055Z,19.60
2019-05-09T12:38:38.899Z,19.50
2019-05-09T12:41:07.895Z,19.60
2019-05-09T12:43:38.181Z,19.50
2019-05-09T12:46:08.624Z,19.50
2019-05-09T12:48:37.842Z,19.40
2019-05-09T12:51:08.210Z,19.40
2019-05-09T12:53:39.556Z,19.40
2019-05-09T12:56:08.214Z,19.50
2019-05-09T12:58:37.279Z,19.50
2019-05-09T13:01:07.465Z,19.50
2019-05-09T13:03:38.253Z,19.50
2019-05-09T13:06:08.182Z,19.50
2019-05-09T13:08:38.562Z,19.70
2019-05-09T13:11:09.189Z,19.80
2019-05-09T13:13:40.964Z,19.80
2019-05-09T13:16:17.717Z,19.90
2019-05-09T13:19:04.339Z,19.80
2019-05-09T13:21:33.503Z,19.90
2019-05-09T13:24:02.680Z,20.00
2019-05-09T13:26:31.754Z,20.00
2019-05-09T13:29:00.707Z,19.90
2019-05-09T13:31:29.779Z,19.90
2019-05-09T13:33:59.065Z,19.80
2019-05-09T13:36:28.734Z,19.80
2019-05-09T13:39:04.396Z,19.80
2019-05-09T13:41:28.805Z,19.90
2019-05-09T13:44:04.693Z,19.90
2019-05-09T13:46:28.539Z,19.90
2019-05-09T13:49:10.924Z,19.90
2019-05-09T13:51:28.161Z,19.80
2019-05-09T13:53:59.373Z,19.70
2019-05-09T13:56:28.170Z,19.60
2019-05-09T13:58:58.145Z,19.50
2019-05-09T14:01:30.057Z,19.50
2019-05-09T14:03:59.116Z,19.40
2019-05-09T14:06:28.002Z,19.40
2019-05-09T14:08:59.651Z,19.40
2019-05-09T14:11:29.192Z,19.40
2019-05-09T14:13:58.304Z,19.40
2019-05-09T14:16:28.772Z,19.40
2019-05-09T14:19:00.552Z,19.50
2019-05-09T14:21:29.763Z,19.50
2019-05-09T14:24:10.716Z,19.40
2019-05-09T14:26:32.739Z,19.40
2019-05-09T14:29:01.610Z,19.30
2019-05-09T14:31:32.535Z,19.30
2019-05-09T14:34:01.331Z,19.20
2019-05-09T14:36:30.354Z,19.20
2019-05-09T14:38:59.286Z,19.20
2019-05-09T14:41:28.290Z,19.20
2019-05-09T14:43:59.681Z,19.20
2019-05-09T14:46:28.504Z,19.20
2019-05-09T14:48:58.562Z,19.20
2019-05-09T14:51:28.403Z,19.10
2019-05-09T14:53:59.348Z,19.20
2019-05-09T14:56:28.718Z,19.10
2019-05-09T14:58:58.231Z,19.10
2019-05-09T15:01:28.745Z,19.10
2019-05-09T15:03:58.721Z,19.00
2019-05-09T15:06:28.437Z,19.00
2019-05-09T15:08:58.125Z,19.00
2019-05-09T15:11:28.258Z,19.00
2019-05-09T15:13:58.511Z,19.00
2019-05-09T15:16:28.344Z,19.00
2019-05-09T15:18:58.436Z,18.90
2019-05-09T15:21:27.824Z,18.90
2019-05-09T15:23:59.108Z,18.90
2019-05-09T15:26:27.710Z,18.90
2019-05-09T15:28:57.824Z,18.90
2019-05-09T15:31:28.572Z,18.80
2019-05-09T15:33:57.939Z,18.80
2019-05-09T15:36:26.826Z,18.80
2019-05-09T15:38:55.708Z,18.90
2019-05-09T15:41:24.622Z,18.80
2019-05-09T15:43:53.541Z,18.90
2019-05-09T15:46:31.012Z,18.90
2019-05-09T15:49:00.046Z,18.80
2019-05-09T15:51:32.006Z,18.80
2019-05-09T15:53:59.662Z,18.80
2019-05-09T15:56:28.918Z,18.80
2019-05-09T15:58:58.217Z,18.80
2019-05-09T16:01:27.839Z,18.80
2019-05-09T16:03:57.154Z,18.70
2019-05-09T16:06:32.643Z,18.70
2019-05-09T16:08:58.566Z,18.70
2019-05-09T16:11:28.613Z,18.70
2019-05-09T16:13:57.805Z,18.70
2019-05-09T16:16:28.690Z,18.70
2019-05-09T16:18:58.316Z,18.70
2019-05-09T16:21:27.884Z,18.70
2019-05-09T16:23:59.239Z,18.80
2019-05-09T16:26:29.116Z,18.70
2019-05-09T16:28:58.323Z,18.70
2019-05-09T16:31:27.911Z,18.70
2019-05-09T16:33:58.164Z,18.70
2019-05-09T16:36:28.196Z,18.70
2019-05-09T16:38:58.405Z,18.60
2019-05-09T16:41:28.075Z,18.60
2019-05-09T16:43:58.353Z,18.70
2019-05-09T16:46:28.666Z,18.60
2019-05-09T16:48:58.240Z,18.60
2019-05-09T16:51:28.564Z,18.70
2019-05-09T16:53:58.417Z,18.60
2019-05-09T16:56:28.723Z,18.60
2019-05-09T16:58:58.083Z,18.50
2019-05-09T17:01:28.384Z,18.60
2019-05-09T17:03:57.738Z,18.60
2019-05-09T17:06:27.501Z,18.60
2019-05-09T17:08:58.363Z,18.50
2019-05-09T17:11:27.916Z,18.50
2019-05-09T17:13:58.425Z,18.50
2019-05-09T17:16:28.467Z,18.50
2019-05-09T17:18:58.179Z,18.50
2019-05-09T17:21:52.070Z,18.50
2019-05-09T17:24:21.139Z,18.40
2019-05-09T17:26:50.179Z,18.40
2019-05-09T17:29:19.202Z,18.30
2019-05-09T17:31:48.923Z,18.30
2019-05-09T17:34:18.211Z,18.20
2019-05-09T17:36:47.378Z,18.20
2019-05-09T17:39:18.549Z,18.10
2019-05-09T17:41:47.187Z,18.10
2019-05-09T17:44:18.438Z,18.10
2019-05-09T17:46:48.018Z,18.00
2019-05-09T17:49:17.570Z,18.10
2019-05-09T17:51:48.206Z,18.10
2019-05-09T17:54:18.246Z,18.00
2019-05-09T17:56:48.387Z,18.00
2019-05-09T17:59:18.453Z,17.90
2019-05-09T18:01:48.336Z,17.90
2019-05-09T18:04:18.076Z,17.90
2019-05-09T18:06:48.877Z,18.00
2019-05-09T18:09:18.964Z,17.90
2019-05-09T18:11:48.408Z,17.80
2019-05-09T18:14:18.464Z,17.80
2019-05-09T18:16:47.953Z,17.80
2019-05-09T18:19:17.944Z,17.80
2019-05-09T18:21:50.974Z,17.80
2019-05-09T18:24:18.293Z,17.80
2019-05-09T18:26:47.519Z,17.80
2019-05-09T18:29:18.108Z,17.80
2019-05-09T18:32:09.043Z,17.80
2019-05-09T18:34:38.125Z,17.70
2019-05-09T18:37:08.054Z,17.70
2019-05-09T18:39:37.560Z,17.70
2019-05-09T18:42:08.687Z,17.70
2019-05-09T18:44:37.538Z,17.70
2019-05-09T18:47:07.808Z,17.70
2019-05-09T18:49:37.203Z,17.60
2019-05-09T18:52:06.227Z,17.60
2019-05-09T18:54:35.174Z,17.60
2019-05-09T18:57:04.248Z,17.50
2019-05-09T18:59:33.088Z,17.50
2019-05-09T19:02:02.049Z,17.40
2019-05-09T19:04:31.072Z,17.40
2019-05-09T19:07:00.035Z,17.40
2019-05-09T19:09:28.989Z,17.30
2019-05-09T19:11:57.899Z,17.30
2019-05-09T19:14:26.998Z,17.30
2019-05-09T19:17:17.789Z,17.30
2019-05-09T19:20:00.764Z,17.30
2019-05-09T19:22:29.782Z,17.30
2019-05-09T19:24:58.797Z,17.30
2019-05-09T19:27:27.645Z,17.30
2019-05-09T19:29:56.691Z,17.30
2019-05-09T19:32:25.622Z,17.20
2019-05-09T19:34:54.695Z,17.20
2019-05-09T19:37:23.812Z,17.20
2019-05-09T19:39:52.927Z,17.20
2019-05-09T19:42:21.936Z,17.20
2019-05-09T19:44:50.905Z,17.20
2019-05-09T19:47:22.930Z,17.10
2019-05-09T19:49:51.969Z,17.10
2019-05-09T19:52:20.957Z,17.10
2019-05-09T19:54:49.830Z,17.10
2019-05-09T19:57:18.807Z,17.00
2019-05-09T19:59:47.805Z,17.00
2019-05-09T20:02:16.670Z,17.00
2019-05-09T20:04:45.582Z,16.80
2019-05-09T20:07:14.662Z,16.80
2019-05-09T20:09:49.066Z,16.80
2019-05-09T20:12:28.117Z,16.80
2019-05-09T20:14:57.079Z,16.80
2019-05-09T20:17:25.934Z,16.80
2019-05-09T20:19:55.062Z,16.70
2019-05-09T20:22:24.737Z,16.70
2019-05-09T20:24:53.589Z,16.70
2019-05-09T20:27:22.547Z,16.70
2019-05-09T20:29:51.483Z,16.60
2019-05-09T20:32:20.490Z,16.60
2019-05-09T20:34:49.372Z,16.60
2019-05-09T20:37:18.413Z,16.50
2019-05-09T20:39:47.762Z,16.50
2019-05-09T20:42:16.915Z,16.40
2019-05-09T20:44:45.972Z,16.40
2019-05-09T20:47:15.153Z,16.30
2019-05-09T20:49:44.248Z,16.30
2019-05-09T20:52:13.318Z,16.20
2019-05-09T20:54:42.534Z,16.20
2019-05-09T20:57:11.917Z,16.10
2019-05-09T20:59:41.051Z,16.10
2019-05-09T21:02:10.263Z,16.00
2019-05-09T21:04:39.478Z,16.00
2019-05-09T21:07:08.521Z,15.90
2019-05-09T21:09:37.688Z,15.90
2019-05-09T21:12:06.955Z,15.90
2019-05-09T21:14:37.642Z,15.90
2019-05-09T21:17:06.861Z,15.80
2019-05-09T21:19:35.981Z,15.80
2019-05-09T21:22:05.218Z,15.70
2019-05-09T21:24:34.406Z,15.70
2019-05-09T21:27:03.468Z,15.70
2019-05-09T21:29:41.871Z,15.70
2019-05-09T21:32:11.061Z,15.60
2019-05-09T21:34:42.001Z,15.60
2019-05-09T21:37:13.931Z,15.60
2019-05-09T21:39:41.698Z,15.60
2019-05-09T21:42:10.654Z,15.50
2019-05-09T21:44:39.552Z,15.50
2019-05-09T21:47:08.566Z,15.50
2019-05-09T21:49:37.502Z,15.50
2019-05-09T21:52:06.534Z,15.50
2019-05-09T21:54:35.489Z,15.40
2019-05-09T21:57:04.476Z,15.40
2019-05-09T21:59:33.434Z,15.40
2019-05-09T22:02:02.669Z,15.40
2019-05-09T22:04:31.642Z,15.40
2019-05-09T22:07:00.725Z,15.40
2019-05-09T22:09:29.709Z,15.40
2019-05-09T22:11:59.069Z,15.50
2019-05-09T22:14:28.159Z,15.60
2019-05-09T22:16:59.200Z,15.60
2019-05-09T22:19:28.147Z,15.70
2019-05-09T22:21:57.215Z,15.80
2019-05-09T22:24:26.655Z,15.80
2019-05-09T22:26:55.591Z,15.90
2019-05-09T22:29:24.509Z,15.90
2019-05-09T22:31:53.510Z,16.00
2019-05-09T22:34:22.490Z,15.90
2019-05-09T22:40:18.422Z,15.80
2019-05-09T22:42:47.332Z,15.80
2019-05-09T22:45:43.234Z,15.90
2019-05-09T22:48:09.437Z,15.90
2019-05-09T22:50:38.367Z,15.90
2019-05-09T22:53:07.298Z,15.90
2019-05-09T22:55:36.305Z,15.90
2019-05-09T22:58:05.340Z,15.90
2019-05-09T23:00:34.406Z,15.80
2019-05-09T23:03:03.429Z,15.80
2019-05-09T23:05:32.296Z,15.80
2019-05-09T23:08:01.247Z,15.90
2019-05-09T23:10:30.360Z,15.90
2019-05-09T23:12:59.204Z,15.90
2019-05-09T23:15:28.252Z,15.90
2019-05-09T23:17:57.267Z,15.80
2019-05-09T23:20:43.879Z,15.80
2019-05-09T23:23:30.872Z,15.80
2019-05-09T23:25:59.875Z,15.80
2019-05-09T23:28:28.885Z,15.70
2019-05-09T23:31:00.210Z,15.70
2019-05-09T23:33:31.648Z,15.70
2019-05-09T23:36:00.486Z,15.70
2019-05-09T23:38:29.638Z,15.70
2019-05-09T23:40:58.642Z,15.70
2019-05-09T23:43:27.605Z,15.80
2019-05-09T23:45:56.525Z,15.80
2019-05-09T23:48:25.409Z,15.80
2019-05-09T23:50:54.333Z,15.80
2019-05-09T23:53:37.130Z,15.80
2019-05-09T23:56:23.868Z,15.80
2019-05-09T23:59:10.946Z,15.80
